EST,Max TemperatureF,Mean TemperatureF,Min TemperatureF,Max Dew PointF,MeanDew PointF,Min DewpointF,Max Humidity, Mean Humidity, Min Humidity, Max Sea Level PressureIn, Mean Sea Level PressureIn, Min Sea Level PressureIn, Max VisibilityMiles, Mean VisibilityMiles, Min VisibilityMiles, Max Wind SpeedMPH, Mean Wind SpeedMPH, Max Gust SpeedMPH,PrecipitationIn, CloudCover, Events, WindDirDegrees
2012-12-1,35,32,28,35,29,26,100,93,85,30.50,30.42,30.35,10,1,0,12,6,15,0.00,8,Fog,108
2012-12-2,47,41,35,43,39,34,100,88,76,30.41,30.20,30.08,10,3,0,15,7,23,0.05,6,Fog-Rain,224
2012-12-3,54,47,39,47,44,37,100,86,71,30.27,30.19,30.08,10,6,1,16,7,24,0.00,5,,307
2012-12-4,60,53,46,52,49,44,100,89,77,30.25,30.18,29.95,10,5,0,16,6,24,0.12,6,Fog-Rain,197
2012-12-5,55,40,25,50,31,15,93,74,54,30.24,30.06,29.92,10,9,2,24,15,35,0.17,6,Rain,314
2012-12-6,38,30,21,18,16,13,77,57,37,30.35,30.28,30.16,10,10,10,26,8,35,0.00,0,,9
2012-12-7,36,31,26,36,30,18,100,82,63,30.22,30.08,29.96,10,6,2,13,6,17,0.20,7,Rain,224
2012-12-8,53,45,36,47,42,35,100,89,77,30.01,29.91,29.84,10,5,0,13,4,18,0.03,7,Fog-Rain,248
2012-12-9,47,40,33,45,34,27,100,82,64,30.22,30.11,29.99,10,7,0,16,9,22,0.03,7,Fog-Rain,48
2012-12-10,51,44,37,49,44,35,100,93,85,29.98,29.68,29.56,10,7,0,23,9,35,0.20,8,Fog-Rain,247
2012-12-11,40,33,25,34,30,22,92,81,69,30.19,29.89,29.65,10,10,10,17,8,26,0.02,6,Rain,315
2012-12-12,37,30,23,24,22,19,88,72,56,30.45,30.35,30.19,10,10,10,10,2,14,0.00,0,,297
2012-12-13,39,29,19,25,21,16,91,72,52,30.48,30.41,30.32,10,10,6,9,2,10,0.00,1,,337
2012-12-14,43,33,22,26,22,19,92,66,39,30.28,30.23,30.17,10,10,10,16,8,20,0.00,0,,298
2012-12-15,41,33,25,31,27,24,92,76,59,30.31,30.24,30.15,10,9,6,12,5,15,0.00,2,,105
2012-12-16,38,36,34,37,35,31,100,91,82,30.17,30.00,29.85,1,0,0,14,9,18,0.07,8,Fog-Rain,112
2012-12-17,37,36,34,37,35,33,100,96,92,29.89,29.78,29.57,2,0,0,13,8,22,0.45,8,Fog-Rain,103
2012-12-18,46,41,35,43,37,30,100,91,82,29.65,29.52,29.43,10,5,0,22,10,32,0.35,8,Fog-Rain,280
2012-12-19,39,36,32,30,26,24,82,73,64,30.13,29.86,29.62,10,10,10,28,17,39,0.00,4,,313
2012-12-20,37,31,25,36,26,21,96,81,66,30.18,29.99,29.71,10,8,0,22,10,30,0.19,3,Fog-Rain-Snow,118
2012-12-21,49,39,29,46,32,25,100,89,78,29.60,29.24,29.14,10,4,0,28,16,39,2.51,8,Fog-Rain-Snow,269
2012-12-22,30,29,27,27,21,17,92,75,58,29.82,29.47,29.24,10,4,0,31,19,45,0.10,8,Fog-Snow,294
2012-12-23,34,31,27,22,19,13,75,58,41,29.94,29.88,29.83,10,10,10,23,12,36,0.00,3,,277
2012-12-24,31,25,19,25,21,16,92,75,58,30.06,29.94,29.83,10,6,1,13,6,15,0.05,5,Snow,105
2012-12-25,31,26,21,29,25,17,92,84,75,30.24,30.00,29.82,10,6,0,22,10,30,T,7,Fog-Snow,332
2012-12-26,28,22,16,25,19,12,96,78,60,30.28,29.87,29.46,10,4,0,30,14,40,0.50,6,Fog-Snow,78
2012-12-27,32,27,21,29,23,15,92,85,77,29.88,29.53,29.38,10,5,1,32,19,45,T,8,Snow,338
2012-12-28,26,22,17,20,18,16,92,84,75,30.08,30.00,29.80,10,10,10,28,11,40,0.00,6,,320
2012-12-29,27,23,18,25,21,16,96,90,84,30.01,29.67,29.47,10,4,0,25,8,35,0.30,8,Fog-Snow,70
2012-12-30,26,23,20,19,14,9,81,69,57,30.16,29.84,29.56,10,4,1,36,21,52,0.02,7,Snow,310
2012-12-31,32,26,20,25,17,10,77,68,58,30.15,30.03,29.81,10,10,9,24,14,32,T,4,,277